sensor_id;sensor_type;location;lat;lon;timestamp;temperature;humidity
14577;DHT22;7375;46.072;14.470;2023-06-10T00:00:43;23.60;69.70
14577;DHT22;7375;46.072;14.470;2023-06-10T00:03:10;23.60;69.70
14577;DHT22;7375;46.072;14.470;2023-06-10T00:05:37;23.50;69.60
14577;DHT22;7375;46.072;14.470;2023-06-10T00:08:05;23.60;69.70
14577;DHT22;7375;46.072;14.470;2023-06-10T00:10:33;23.60;69.80
14577;DHT22;7375;46.072;14.470;2023-06-10T00:13:01;23.60;69.80
14577;DHT22;7375;46.072;14.470;2023-06-10T00:15:29;23.60;69.80
14577;DHT22;7375;46.072;14.470;2023-06-10T00:17:55;23.50;69.70
14577;DHT22;7375;46.072;14.470;2023-06-10T00:20:22;23.50;69.70
14577;DHT22;7375;46.072;14.470;2023-06-10T00:22:50;23.50;69.70
14577;DHT22;7375;46.072;14.470;2023-06-10T00:25:17;23.50;69.70
14577;DHT22;7375;46.072;14.470;2023-06-10T00:27:44;23.50;69.70
14577;DHT22;7375;46.072;14.470;2023-06-10T00:30:12;23.50;69.70
14577;DHT22;7375;46.072;14.470;2023-06-10T00:32:39;23.50;69.80
14577;DHT22;7375;46.072;14.470;2023-06-10T00:35:06;23.50;69.70
14577;DHT22;7375;46.072;14.470;2023-06-10T00:37:33;23.50;69.80
14577;DHT22;7375;46.072;14.470;2023-06-10T00:40:00;23.50;69.80
14577;DHT22;7375;46.072;14.470;2023-06-10T00:42:26;23.50;69.80
14577;DHT22;7375;46.072;14.470;2023-06-10T00:44:53;23.50;69.80
14577;DHT22;7375;46.072;14.470;2023-06-10T00:47:22;23.50;69.80
14577;DHT22;7375;46.072;14.470;2023-06-10T00:49:49;23.50;69.80
14577;DHT22;7375;46.072;14.470;2023-06-10T00:52:16;23.50;69.80
14577;DHT22;7375;46.072;14.470;2023-06-10T00:54:43;23.50;69.80
14577;DHT22;7375;46.072;14.470;2023-06-10T00:57:10;23.40;69.70
14577;DHT22;7375;46.072;14.470;2023-06-10T00:59:36;23.50;69.90
14577;DHT22;7375;46.072;14.470;2023-06-10T01:02:03;23.50;69.90
14577;DHT22;7375;46.072;14.470;2023-06-10T01:04:31;23.50;69.90
14577;DHT22;7375;46.072;14.470;2023-06-10T01:07:00;23.50;69.90
14577;DHT22;7375;46.072;14.470;2023-06-10T01:09:32;23.40;69.80
14577;DHT22;7375;46.072;14.470;2023-06-10T01:12:01;23.40;69.80
14577;DHT22;7375;46.072;14.470;2023-06-10T01:14:29;23.40;69.80
14577;DHT22;7375;46.072;14.470;2023-06-10T01:16:57;23.40;69.80
14577;DHT22;7375;46.072;14.470;2023-06-10T01:19:25;23.40;69.80
14577;DHT22;7375;46.072;14.470;2023-06-10T01:21:54;23.40;69.80
14577;DHT22;7375;46.072;14.470;2023-06-10T01:24:22;23.40;69.90
14577;DHT22;7375;46.072;14.470;2023-06-10T01:26:49;23.40;69.90
14577;DHT22;7375;46.072;14.470;2023-06-10T01:29:18;23.40;69.90
14577;DHT22;7375;46.072;14.470;2023-06-10T01:31:48;23.40;69.90
14577;DHT22;7375;46.072;14.470;2023-06-10T01:34:16;23.40;69.90
14577;DHT22;7375;46.072;14.470;2023-06-10T01:36:44;23.40;69.90
14577;DHT22;7375;46.072;14.470;2023-06-10T01:39:14;23.30;69.90
14577;DHT22;7375;46.072;14.470;2023-06-10T01:41:41;23.30;69.90
14577;DHT22;7375;46.072;14.470;2023-06-10T01:44:08;23.40;69.90
14577;DHT22;7375;46.072;14.470;2023-06-10T01:46:35;23.40;69.90
14577;DHT22;7375;46.072;14.470;2023-06-10T01:49:02;23.40;70.00
14577;DHT22;7375;46.072;14.470;2023-06-10T01:51:28;23.40;69.90
14577;DHT22;7375;46.072;14.470;2023-06-10T01:53:56;23.40;70.00
14577;DHT22;7375;46.072;14.470;2023-06-10T01:56:25;23.30;69.90
14577;DHT22;7375;46.072;14.470;2023-06-10T01:58:51;23.40;70.60
14577;DHT22;7375;46.072;14.470;2023-06-10T02:01:20;23.40;70.00
14577;DHT22;7375;46.072;14.470;2023-06-10T02:03:47;23.30;69.90
14577;DHT22;7375;46.072;14.470;2023-06-10T02:06:13;23.30;69.90
14577;DHT22;7375;46.072;14.470;2023-06-10T02:08:40;23.30;69.90
14577;DHT22;7375;46.072;14.470;2023-06-10T02:11:07;23.30;70.00
14577;DHT22;7375;46.072;14.470;2023-06-10T02:13:35;23.30;70.00
14577;DHT22;7375;46.072;14.470;2023-06-10T02:16:02;23.30;70.00
14577;DHT22;7375;46.072;14.470;2023-06-10T02:18:28;23.30;70.00
14577;DHT22;7375;46.072;14.470;2023-06-10T02:20:55;23.30;70.00
14577;DHT22;7375;46.072;14.470;2023-06-10T02:23:22;23.30;70.00
14577;DHT22;7375;46.072;14.470;2023-06-10T02:25:48;23.30;70.00
14577;DHT22;7375;46.072;14.470;2023-06-10T02:28:15;23.30;70.00
14577;DHT22;7375;46.072;14.470;2023-06-10T02:30:43;23.30;70.00
14577;DHT22;7375;46.072;14.470;2023-06-10T02:33:10;23.30;70.00
14577;DHT22;7375;46.072;14.470;2023-06-10T02:35:37;23.30;70.00
14577;DHT22;7375;46.072;14.470;2023-06-10T02:38:04;23.30;70.00
14577;DHT22;7375;46.072;14.470;2023-06-10T02:40:31;23.30;70.00
14577;DHT22;7375;46.072;14.470;2023-06-10T02:42:57;23.20;70.00
14577;DHT22;7375;46.072;14.470;2023-06-10T02:45:24;23.20;69.90
14577;DHT22;7375;46.072;14.470;2023-06-10T02:47:52;23.20;70.00
14577;DHT22;7375;46.072;14.470;2023-06-10T02:50:19;23.20;69.90
14577;DHT22;7375;46.072;14.470;2023-06-10T02:52:46;23.20;70.00
14577;DHT22;7375;46.072;14.470;2023-06-10T02:55:13;23.20;70.00
14577;DHT22;7375;46.072;14.470;2023-06-10T02:57:40;23.20;70.00
14577;DHT22;7375;46.072;14.470;2023-06-10T03:00:07;23.20;70.00
14577;DHT22;7375;46.072;14.470;2023-06-10T03:02:36;23.20;70.00
14577;DHT22;7375;46.072;14.470;2023-06-10T03:05:05;23.20;70.00
14577;DHT22;7375;46.072;14.470;2023-06-10T03:07:35;23.20;70.00
14577;DHT22;7375;46.072;14.470;2023-06-10T03:10:02;23.20;70.00
14577;DHT22;7375;46.072;14.470;2023-06-10T03:12:29;23.20;70.00
14577;DHT22;7375;46.072;14.470;2023-06-10T03:14:55;23.20;70.00
14577;DHT22;7375;46.072;14.470;2023-06-10T03:17:22;23.20;70.00
14577;DHT22;7375;46.072;14.470;2023-06-10T03:19:49;23.20;70.00
14577;DHT22;7375;46.072;14.470;2023-06-10T03:22:17;23.20;70.00
14577;DHT22;7375;46.072;14.470;2023-06-10T03:24:43;23.20;70.00
14577;DHT22;7375;46.072;14.470;2023-06-10T03:27:12;23.20;70.00
14577;DHT22;7375;46.072;14.470;2023-06-10T03:29:39;23.20;70.00
14577;DHT22;7375;46.072;14.470;2023-06-10T03:32:06;23.20;70.00
14577;DHT22;7375;46.072;14.470;2023-06-10T03:34:33;23.20;70.00
14577;DHT22;7375;46.072;14.470;2023-06-10T03:37:00;23.20;70.10
14577;DHT22;7375;46.072;14.470;2023-06-10T03:39:28;23.20;70.10
14577;DHT22;7375;46.072;14.470;2023-06-10T03:41:55;23.20;70.10
14577;DHT22;7375;46.072;14.470;2023-06-10T03:44:22;23.20;70.00
14577;DHT22;7375;46.072;14.470;2023-06-10T03:46:48;23.20;70.10
14577;DHT22;7375;46.072;14.470;2023-06-10T03:49:15;23.20;70.10
14577;DHT22;7375;46.072;14.470;2023-06-10T03:51:42;23.20;70.10
14577;DHT22;7375;46.072;14.470;2023-06-10T03:54:09;23.10;70.00
14577;DHT22;7375;46.072;14.470;2023-06-10T03:56:37;23.20;70.10
14577;DHT22;7375;46.072;14.470;2023-06-10T03:59:03;23.20;70.10
14577;DHT22;7375;46.072;14.470;2023-06-10T04:01:30;23.10;70.00
14577;DHT22;7375;46.072;14.470;2023-06-10T04:03:58;23.20;70.10
14577;DHT22;7375;46.072;14.470;2023-06-10T04:06:26;23.20;70.40
14577;DHT22;7375;46.072;14.470;2023-06-10T04:08:54;23.20;70.10
14577;DHT22;7375;46.072;14.470;2023-06-10T04:11:22;23.20;70.00
14577;DHT22;7375;46.072;14.470;2023-06-10T04:13:50;23.20;70.10
14577;DHT22;7375;46.072;14.470;2023-06-10T04:16:17;23.20;70.00
14577;DHT22;7375;46.072;14.470;2023-06-10T04:18:43;23.20;70.00
14577;DHT22;7375;46.072;14.470;2023-06-10T04:21:10;23.20;70.00
14577;DHT22;7375;46.072;14.470;2023-06-10T04:23:37;23.20;70.00
14577;DHT22;7375;46.072;14.470;2023-06-10T04:26:04;23.20;70.00
14577;DHT22;7375;46.072;14.470;2023-06-10T04:28:31;23.20;70.00
14577;DHT22;7375;46.072;14.470;2023-06-10T04:30:59;23.20;70.00
14577;DHT22;7375;46.072;14.470;2023-06-10T04:33:26;23.20;69.90
14577;DHT22;7375;46.072;14.470;2023-06-10T04:35:53;23.20;69.90
14577;DHT22;7375;46.072;14.470;2023-06-10T04:38:20;23.20;69.90
14577;DHT22;7375;46.072;14.470;2023-06-10T04:40:47;23.20;69.90
14577;DHT22;7375;46.072;14.470;2023-06-10T04:43:13;23.20;69.90
14577;DHT22;7375;46.072;14.470;2023-06-10T04:45:41;23.20;69.80
14577;DHT22;7375;46.072;14.470;2023-06-10T04:48:11;23.20;69.80
14577;DHT22;7375;46.072;14.470;2023-06-10T04:50:38;23.20;69.80
14577;DHT22;7375;46.072;14.470;2023-06-10T04:53:05;23.20;69.80
14577;DHT22;7375;46.072;14.470;2023-06-10T04:55:32;23.20;69.80
14577;DHT22;7375;46.072;14.470;2023-06-10T04:57:59;23.30;69.90
14577;DHT22;7375;46.072;14.470;2023-06-10T05:00:26;23.30;69.90
14577;DHT22;7375;46.072;14.470;2023-06-10T05:02:53;23.30;69.80
14577;DHT22;7375;46.072;14.470;2023-06-10T05:05:21;23.30;69.90
14577;DHT22;7375;46.072;14.470;2023-06-10T05:07:47;23.30;69.80
14577;DHT22;7375;46.072;14.470;2023-06-10T05:10:14;23.30;69.80
14577;DHT22;7375;46.072;14.470;2023-06-10T05:12:41;23.30;69.90
14577;DHT22;7375;46.072;14.470;2023-06-10T05:15:08;23.30;69.90
14577;DHT22;7375;46.072;14.470;2023-06-10T05:17:35;23.40;69.90
14577;DHT22;7375;46.072;14.470;2023-06-10T05:20:02;23.40;69.90
14577;DHT22;7375;46.072;14.470;2023-06-10T05:22:30;23.40;69.80
14577;DHT22;7375;46.072;14.470;2023-06-10T05:24:57;23.40;69.80
14577;DHT22;7375;46.072;14.470;2023-06-10T05:27:23;23.50;69.80
14577;DHT22;7375;46.072;14.470;2023-06-10T05:29:50;23.50;69.70
14577;DHT22;7375;46.072;14.470;2023-06-10T05:32:17;23.60;69.70
14577;DHT22;7375;46.072;14.470;2023-06-10T05:34:44;23.60;69.70
14577;DHT22;7375;46.072;14.470;2023-06-10T05:37:10;23.60;69.70
14577;DHT22;7375;46.072;14.470;2023-06-10T05:39:38;23.60;69.60
14577;DHT22;7375;46.072;14.470;2023-06-10T05:42:06;23.70;69.70
14577;DHT22;7375;46.072;14.470;2023-06-10T05:44:32;23.70;69.70
14577;DHT22;7375;46.072;14.470;2023-06-10T05:46:59;23.70;69.70
14577;DHT22;7375;46.072;14.470;2023-06-10T05:49:26;23.70;69.70
14577;DHT22;7375;46.072;14.470;2023-06-10T05:51:53;23.80;69.90
14577;DHT22;7375;46.072;14.470;2023-06-10T05:54:21;23.80;69.90
14577;DHT22;7375;46.072;14.470;2023-06-10T05:56:49;23.90;69.70
14577;DHT22;7375;46.072;14.470;2023-06-10T05:59:16;23.90;69.70
14577;DHT22;7375;46.072;14.470;2023-06-10T06:01:42;23.90;69.50
14577;DHT22;7375;46.072;14.470;2023-06-10T06:04:09;24.00;69.20
14577;DHT22;7375;46.072;14.470;2023-06-10T06:06:38;24.00;69.00
14577;DHT22;7375;46.072;14.470;2023-06-10T06:09:05;24.00;68.80
14577;DHT22;7375;46.072;14.470;2023-06-10T06:11:33;24.10;68.80
14577;DHT22;7375;46.072;14.470;2023-06-10T06:14:01;24.20;68.70
14577;DHT22;7375;46.072;14.470;2023-06-10T06:16:27;24.10;68.50
14577;DHT22;7375;46.072;14.470;2023-06-10T06:18:54;24.20;68.40
14577;DHT22;7375;46.072;14.470;2023-06-10T06:21:21;24.30;68.40
14577;DHT22;7375;46.072;14.470;2023-06-10T06:23:47;24.30;68.20
14577;DHT22;7375;46.072;14.470;2023-06-10T06:26:14;24.30;68.10
14577;DHT22;7375;46.072;14.470;2023-06-10T06:28:42;24.40;68.00
14577;DHT22;7375;46.072;14.470;2023-06-10T06:31:10;24.40;67.90
14577;DHT22;7375;46.072;14.470;2023-06-10T06:33:37;24.50;67.80
14577;DHT22;7375;46.072;14.470;2023-06-10T06:36:04;24.50;67.60
14577;DHT22;7375;46.072;14.470;2023-06-10T06:38:30;24.60;67.50
14577;DHT22;7375;46.072;14.470;2023-06-10T06:40:57;24.60;67.40
14577;DHT22;7375;46.072;14.470;2023-06-10T06:43:28;24.60;67.30
14577;DHT22;7375;46.072;14.470;2023-06-10T06:45:55;24.60;67.20
14577;DHT22;7375;46.072;14.470;2023-06-10T06:48:23;24.60;67.20
14577;DHT22;7375;46.072;14.470;2023-06-10T06:50:49;24.70;67.20
14577;DHT22;7375;46.072;14.470;2023-06-10T06:53:16;24.70;67.00
14577;DHT22;7375;46.072;14.470;2023-06-10T06:55:43;24.80;66.90
14577;DHT22;7375;46.072;14.470;2023-06-10T06:58:09;24.80;66.70
14577;DHT22;7375;46.072;14.470;2023-06-10T07:00:36;24.90;66.60
14577;DHT22;7375;46.072;14.470;2023-06-10T07:03:03;24.90;66.50
14577;DHT22;7375;46.072;14.470;2023-06-10T07:05:31;25.00;66.40
14577;DHT22;7375;46.072;14.470;2023-06-10T07:07:58;25.00;66.30
14577;DHT22;7375;46.072;14.470;2023-06-10T07:10:24;25.00;66.30
14577;DHT22;7375;46.072;14.470;2023-06-10T07:12:51;25.00;66.30
14577;DHT22;7375;46.072;14.470;2023-06-10T07:15:18;25.00;66.40
14577;DHT22;7375;46.072;14.470;2023-06-10T07:17:45;24.90;66.40
14577;DHT22;7375;46.072;14.470;2023-06-10T07:20:11;24.90;66.50
14577;DHT22;7375;46.072;14.470;2023-06-10T07:22:41;24.80;66.50
14577;DHT22;7375;46.072;14.470;2023-06-10T07:25:08;24.80;66.60
14577;DHT22;7375;46.072;14.470;2023-06-10T07:27:34;24.80;66.60
14577;DHT22;7375;46.072;14.470;2023-06-10T07:30:02;24.80;66.70
14577;DHT22;7375;46.072;14.470;2023-06-10T07:32:30;24.80;66.70
14577;DHT22;7375;46.072;14.470;2023-06-10T07:34:56;24.80;66.70
14577;DHT22;7375;46.072;14.470;2023-06-10T07:37:23;24.80;66.80
14577;DHT22;7375;46.072;14.470;2023-06-10T07:39:51;24.80;66.90
14577;DHT22;7375;46.072;14.470;2023-06-10T07:42:18;24.70;66.80
14577;DHT22;7375;46.072;14.470;2023-06-10T07:44:44;24.70;66.90
14577;DHT22;7375;46.072;14.470;2023-06-10T07:47:11;24.70;66.90
14577;DHT22;7375;46.072;14.470;2023-06-10T07:49:38;24.70;67.50
14577;DHT22;7375;46.072;14.470;2023-06-10T07:52:05;24.70;66.90
14577;DHT22;7375;46.072;14.470;2023-06-10T07:54:32;24.70;66.90
14577;DHT22;7375;46.072;14.470;2023-06-10T07:57:00;24.70;66.90
14577;DHT22;7375;46.072;14.470;2023-06-10T07:59:26;24.70;66.90
14577;DHT22;7375;46.072;14.470;2023-06-10T08:01:53;24.70;66.90
14577;DHT22;7375;46.072;14.470;2023-06-10T08:04:20;24.70;67.50
14577;DHT22;7375;46.072;14.470;2023-06-10T08:06:46;24.70;66.90
14577;DHT22;7375;46.072;14.470;2023-06-10T08:09:13;24.70;66.90
14577;DHT22;7375;46.072;14.470;2023-06-10T08:11:40;24.70;66.90
14577;DHT22;7375;46.072;14.470;2023-06-10T08:14:08;24.60;66.80
14577;DHT22;7375;46.072;14.470;2023-06-10T08:16:34;24.70;66.90
14577;DHT22;7375;46.072;14.470;2023-06-10T08:19:01;24.60;66.80
14577;DHT22;7375;46.072;14.470;2023-06-10T08:21:28;24.70;66.90
14577;DHT22;7375;46.072;14.470;2023-06-10T08:23:54;24.70;66.90
14577;DHT22;7375;46.072;14.470;2023-06-10T08:26:21;24.60;66.90
14577;DHT22;7375;46.072;14.470;2023-06-10T08:28:48;24.60;66.80
14577;DHT22;7375;46.072;14.470;2023-06-10T08:31:16;24.70;66.90
14577;DHT22;7375;46.072;14.470;2023-06-10T08:33:43;24.60;66.90
14577;DHT22;7375;46.072;14.470;2023-06-10T08:36:09;24.60;66.90
14577;DHT22;7375;46.072;14.470;2023-06-10T08:38:36;24.70;67.00
14577;DHT22;7375;46.072;14.470;2023-06-10T08:41:03;24.60;66.90
14577;DHT22;7375;46.072;14.470;2023-06-10T08:43:32;24.60;66.90
14577;DHT22;7375;46.072;14.470;2023-06-10T08:46:00;24.60;66.90
14577;DHT22;7375;46.072;14.470;2023-06-10T08:48:29;24.60;66.90
14577;DHT22;7375;46.072;14.470;2023-06-10T08:50:56;24.70;67.00
14577;DHT22;7375;46.072;14.470;2023-06-10T08:53:24;24.70;67.00
14577;DHT22;7375;46.072;14.470;2023-06-10T08:55:51;24.60;66.90
14577;DHT22;7375;46.072;14.470;2023-06-10T08:58:19;24.60;66.90
14577;DHT22;7375;46.072;14.470;2023-06-10T09:00:46;24.60;66.90
14577;DHT22;7375;46.072;14.470;2023-06-10T09:03:12;24.60;66.90
14577;DHT22;7375;46.072;14.470;2023-06-10T09:05:40;24.60;66.90
14577;DHT22;7375;46.072;14.470;2023-06-10T09:08:08;24.60;66.90
14577;DHT22;7375;46.072;14.470;2023-06-10T09:10:35;24.60;66.90
14577;DHT22;7375;46.072;14.470;2023-06-10T09:13:02;24.70;67.10
14577;DHT22;7375;46.072;14.470;2023-06-10T09:15:28;24.60;66.90
14577;DHT22;7375;46.072;14.470;2023-06-10T09:17:55;24.60;67.00
14577;DHT22;7375;46.072;14.470;2023-06-10T09:20:22;24.70;67.10
14577;DHT22;7375;46.072;14.470;2023-06-10T09:22:50;24.70;67.10
14577;DHT22;7375;46.072;14.470;2023-06-10T09:25:17;24.60;67.00
14577;DHT22;7375;46.072;14.470;2023-06-10T09:27:44;24.60;66.90
14577;DHT22;7375;46.072;14.470;2023-06-10T09:30:23;24.70;67.10
14577;DHT22;7375;46.072;14.470;2023-06-10T09:32:50;24.60;67.00
14577;DHT22;7375;46.072;14.470;2023-06-10T09:35:17;24.60;67.00
14577;DHT22;7375;46.072;14.470;2023-06-10T09:37:44;24.60;66.90
14577;DHT22;7375;46.072;14.470;2023-06-10T09:40:12;24.60;66.90
14577;DHT22;7375;46.072;14.470;2023-06-10T09:42:39;24.60;66.90
14577;DHT22;7375;46.072;14.470;2023-06-10T09:45:06;24.60;67.00
14577;DHT22;7375;46.072;14.470;2023-06-10T09:47:33;24.60;66.90
14577;DHT22;7375;46.072;14.470;2023-06-10T09:50:00;24.70;67.10
14577;DHT22;7375;46.072;14.470;2023-06-10T09:52:27;24.60;66.90
14577;DHT22;7375;46.072;14.470;2023-06-10T09:54:59;24.60;66.90
14577;DHT22;7375;46.072;14.470;2023-06-10T09:57:29;24.60;66.90
14577;DHT22;7375;46.072;14.470;2023-06-10T09:59:57;24.60;66.90
14577;DHT22;7375;46.072;14.470;2023-06-10T10:02:24;24.60;66.90
14577;DHT22;7375;46.072;14.470;2023-06-10T10:04:51;24.60;66.90
14577;DHT22;7375;46.072;14.470;2023-06-10T10:07:17;24.60;66.90
14577;DHT22;7375;46.072;14.470;2023-06-10T10:09:44;24.60;66.90
14577;DHT22;7375;46.072;14.470;2023-06-10T10:12:12;24.60;66.90
14577;DHT22;7375;46.072;14.470;2023-06-10T10:14:43;24.60;66.90
14577;DHT22;7375;46.072;14.470;2023-06-10T10:17:10;24.70;67.00
14577;DHT22;7375;46.072;14.470;2023-06-10T10:19:39;24.60;66.90
14577;DHT22;7375;46.072;14.470;2023-06-10T10:22:07;24.60;66.90
14577;DHT22;7375;46.072;14.470;2023-06-10T10:24:36;24.70;67.60
14577;DHT22;7375;46.072;14.470;2023-06-10T10:27:07;24.60;66.90
14577;DHT22;7375;46.072;14.470;2023-06-10T10:29:38;24.60;66.90
14577;DHT22;7375;46.072;14.470;2023-06-10T10:32:07;24.60;66.90
14577;DHT22;7375;46.072;14.470;2023-06-10T10:34:35;24.60;66.90
14577;DHT22;7375;46.072;14.470;2023-06-10T10:37:03;24.60;66.90
14577;DHT22;7375;46.072;14.470;2023-06-10T10:39:30;24.70;66.90
14577;DHT22;7375;46.072;14.470;2023-06-10T10:41:57;24.60;66.90
14577;DHT22;7375;46.072;14.470;2023-06-10T10:44:24;24.60;66.80
14577;DHT22;7375;46.072;14.470;2023-06-10T10:46:51;24.60;66.80
14577;DHT22;7375;46.072;14.470;2023-06-10T10:49:20;24.60;66.80
14577;DHT22;7375;46.072;14.470;2023-06-10T10:51:55;24.60;66.80
14577;DHT22;7375;46.072;14.470;2023-06-10T10:54:27;24.60;66.80
14577;DHT22;7375;46.072;14.470;2023-06-10T10:57:10;24.60;66.80
14577;DHT22;7375;46.072;14.470;2023-06-10T10:59:44;24.60;66.80
14577;DHT22;7375;46.072;14.470;2023-06-10T11:02:11;24.60;66.80
14577;DHT22;7375;46.072;14.470;2023-06-10T11:04:45;24.60;66.80
14577;DHT22;7375;46.072;14.470;2023-06-10T11:07:12;24.60;66.80
14577;DHT22;7375;46.072;14.470;2023-06-10T11:09:56;24.70;66.90
14577;DHT22;7375;46.072;14.470;2023-06-10T11:12:23;24.60;66.80
14577;DHT22;7375;46.072;14.470;2023-06-10T11:14:53;24.60;67.40
14577;DHT22;7375;46.072;14.470;2023-06-10T11:17:20;24.60;66.80
14577;DHT22;7375;46.072;14.470;2023-06-10T11:19:48;24.60;66.80
14577;DHT22;7375;46.072;14.470;2023-06-10T11:22:16;24.60;66.80
14577;DHT22;7375;46.072;14.470;2023-06-10T11:24:46;24.60;66.80
14577;DHT22;7375;46.072;14.470;2023-06-10T11:27:17;24.60;66.80
14577;DHT22;7375;46.072;14.470;2023-06-10T11:30:17;24.60;66.80
14577;DHT22;7375;46.072;14.470;2023-06-10T11:32:44;24.60;66.80
14577;DHT22;7375;46.072;14.470;2023-06-10T11:35:12;24.60;66.80
14577;DHT22;7375;46.072;14.470;2023-06-10T11:37:39;24.60;66.70
14577;DHT22;7375;46.072;14.470;2023-06-10T11:40:06;24.60;66.80
14577;DHT22;7375;46.072;14.470;2023-06-10T11:42:38;24.70;66.90
14577;DHT22;7375;46.072;14.470;2023-06-10T11:45:05;24.60;66.80
14577;DHT22;7375;46.072;14.470;2023-06-10T11:47:33;24.60;66.70
14577;DHT22;7375;46.072;14.470;2023-06-10T11:50:00;24.60;66.70
14577;DHT22;7375;46.072;14.470;2023-06-10T11:52:28;24.60;66.70
14577;DHT22;7375;46.072;14.470;2023-06-10T11:54:57;24.60;66.70
14577;DHT22;7375;46.072;14.470;2023-06-10T11:57:24;24.60;66.70
14577;DHT22;7375;46.072;14.470;2023-06-10T11:59:50;24.60;66.70
14577;DHT22;7375;46.072;14.470;2023-06-10T12:02:17;24.60;66.70
14577;DHT22;7375;46.072;14.470;2023-06-10T12:04:44;24.60;66.70
14577;DHT22;7375;46.072;14.470;2023-06-10T12:07:16;24.60;66.70
14577;DHT22;7375;46.072;14.470;2023-06-10T12:09:45;24.60;66.70
14577;DHT22;7375;46.072;14.470;2023-06-10T12:12:12;24.60;66.70
14577;DHT22;7375;46.072;14.470;2023-06-10T12:14:51;24.60;66.70
14577;DHT22;7375;46.072;14.470;2023-06-10T12:17:23;24.60;66.70
14577;DHT22;7375;46.072;14.470;2023-06-10T12:19:52;24.70;66.80
14577;DHT22;7375;46.072;14.470;2023-06-10T12:22:19;24.60;66.70
14577;DHT22;7375;46.072;14.470;2023-06-10T12:24:58;24.60;66.70
14577;DHT22;7375;46.072;14.470;2023-06-10T12:27:26;24.60;66.70
14577;DHT22;7375;46.072;14.470;2023-06-10T12:29:55;24.60;66.60
14577;DHT22;7375;46.072;14.470;2023-06-10T12:32:34;24.60;66.60
14577;DHT22;7375;46.072;14.470;2023-06-10T12:35:05;24.60;66.70
14577;DHT22;7375;46.072;14.470;2023-06-10T12:37:32;24.60;66.60
14577;DHT22;7375;46.072;14.470;2023-06-10T12:40:01;24.60;66.70
14577;DHT22;7375;46.072;14.470;2023-06-10T12:42:29;24.60;66.60
14577;DHT22;7375;46.072;14.470;2023-06-10T12:44:56;24.60;66.60
14577;DHT22;7375;46.072;14.470;2023-06-10T12:47:28;24.60;66.70
14577;DHT22;7375;46.072;14.470;2023-06-10T12:49:57;24.60;66.60
14577;DHT22;7375;46.072;14.470;2023-06-10T12:52:24;24.60;66.60
14577;DHT22;7375;46.072;14.470;2023-06-10T12:54:50;24.60;66.60
14577;DHT22;7375;46.072;14.470;2023-06-10T12:57:19;24.60;66.60
14577;DHT22;7375;46.072;14.470;2023-06-10T12:59:45;24.60;66.70
14577;DHT22;7375;46.072;14.470;2023-06-10T13:02:17;24.60;66.60
14577;DHT22;7375;46.072;14.470;2023-06-10T13:04:45;24.60;66.60
14577;DHT22;7375;46.072;14.470;2023-06-10T13:07:11;24.60;66.60
14577;DHT22;7375;46.072;14.470;2023-06-10T13:09:38;24.60;66.60
14577;DHT22;7375;46.072;14.470;2023-06-10T13:12:05;24.60;66.60
14577;DHT22;7375;46.072;14.470;2023-06-10T13:14:34;24.60;66.60
14577;DHT22;7375;46.072;14.470;2023-06-10T13:17:02;24.60;66.60
14577;DHT22;7375;46.072;14.470;2023-06-10T13:19:31;24.60;66.60
14577;DHT22;7375;46.072;14.470;2023-06-10T13:21:58;24.60;66.60
14577;DHT22;7375;46.072;14.470;2023-06-10T13:24:25;24.60;66.60
14577;DHT22;7375;46.072;14.470;2023-06-10T13:26:52;24.60;66.60
14577;DHT22;7375;46.072;14.470;2023-06-10T13:29:20;24.60;66.60
14577;DHT22;7375;46.072;14.470;2023-06-10T13:31:48;24.60;66.60
14577;DHT22;7375;46.072;14.470;2023-06-10T13:34:14;24.60;66.50
14577;DHT22;7375;46.072;14.470;2023-06-10T13:36:41;24.60;66.50
14577;DHT22;7375;46.072;14.470;2023-06-10T13:39:08;24.60;66.50
14577;DHT22;7375;46.072;14.470;2023-06-10T13:41:34;24.60;66.50
14577;DHT22;7375;46.072;14.470;2023-06-10T13:44:01;24.60;66.50
14577;DHT22;7375;46.072;14.470;2023-06-10T13:46:28;24.60;66.50
14577;DHT22;7375;46.072;14.470;2023-06-10T13:48:56;24.60;66.50
14577;DHT22;7375;46.072;14.470;2023-06-10T13:51:22;24.60;66.50
14577;DHT22;7375;46.072;14.470;2023-06-10T13:53:49;24.60;66.50
14577;DHT22;7375;46.072;14.470;2023-06-10T13:56:17;24.60;66.50
14577;DHT22;7375;46.072;14.470;2023-06-10T13:58:43;24.60;66.50
14577;DHT22;7375;46.072;14.470;2023-06-10T14:01:10;24.60;66.50
14577;DHT22;7375;46.072;14.470;2023-06-10T14:03:37;24.60;66.50
14577;DHT22;7375;46.072;14.470;2023-06-10T14:06:05;24.60;66.50
14577;DHT22;7375;46.072;14.470;2023-06-10T14:08:32;24.60;66.50
14577;DHT22;7375;46.072;14.470;2023-06-10T14:10:59;24.60;66.50
14577;DHT22;7375;46.072;14.470;2023-06-10T14:13:26;24.60;66.50
14577;DHT22;7375;46.072;14.470;2023-06-10T14:15:53;24.60;66.40
14577;DHT22;7375;46.072;14.470;2023-06-10T14:18:20;24.60;66.50
14577;DHT22;7375;46.072;14.470;2023-06-10T14:20:46;24.60;66.40
14577;DHT22;7375;46.072;14.470;2023-06-10T14:23:14;24.60;66.40
14577;DHT22;7375;46.072;14.470;2023-06-10T14:25:41;24.60;66.40
14577;DHT22;7375;46.072;14.470;2023-06-10T14:28:08;24.60;66.50
14577;DHT22;7375;46.072;14.470;2023-06-10T14:30:34;24.60;66.50
14577;DHT22;7375;46.072;14.470;2023-06-10T14:33:01;24.60;66.40
14577;DHT22;7375;46.072;14.470;2023-06-10T14:35:28;24.60;66.40
14577;DHT22;7375;46.072;14.470;2023-06-10T14:37:54;24.60;66.50
14577;DHT22;7375;46.072;14.470;2023-06-10T14:40:22;24.60;66.40
14577;DHT22;7375;46.072;14.470;2023-06-10T14:42:51;24.60;66.40
14577;DHT22;7375;46.072;14.470;2023-06-10T14:45:17;24.60;66.40
14577;DHT22;7375;46.072;14.470;2023-06-10T14:47:44;24.60;66.40
14577;DHT22;7375;46.072;14.470;2023-06-10T14:50:12;24.60;66.40
14577;DHT22;7375;46.072;14.470;2023-06-10T14:52:39;24.60;66.40
14577;DHT22;7375;46.072;14.470;2023-06-10T14:55:06;24.60;66.40
14577;DHT22;7375;46.072;14.470;2023-06-10T14:57:34;24.60;66.40
14577;DHT22;7375;46.072;14.470;2023-06-10T15:00:00;24.60;66.40
14577;DHT22;7375;46.072;14.470;2023-06-10T15:02:27;24.60;66.40
14577;DHT22;7375;46.072;14.470;2023-06-10T15:04:54;24.60;66.50
14577;DHT22;7375;46.072;14.470;2023-06-10T15:07:20;24.60;66.40
14577;DHT22;7375;46.072;14.470;2023-06-10T15:09:47;24.60;66.50
14577;DHT22;7375;46.072;14.470;2023-06-10T15:12:14;24.60;66.40
14577;DHT22;7375;46.072;14.470;2023-06-10T15:14:42;24.60;66.40
14577;DHT22;7375;46.072;14.470;2023-06-10T15:17:08;24.60;66.40
14577;DHT22;7375;46.072;14.470;2023-06-10T15:19:35;24.60;66.50
14577;DHT22;7375;46.072;14.470;2023-06-10T15:22:02;24.60;66.40
14577;DHT22;7375;46.072;14.470;2023-06-10T15:24:29;24.60;66.40
14577;DHT22;7375;46.072;14.470;2023-06-10T15:26:55;24.60;66.40
14577;DHT22;7375;46.072;14.470;2023-06-10T15:29:22;24.60;66.40
14577;DHT22;7375;46.072;14.470;2023-06-10T15:31:50;24.60;66.40